Chaiten, Chile
Current Conditions -  °F | °C
As of 1:00 AM on Wednesday 22 Oct 2014 (Local Time) from SCPQ Reporting Station
Broken Clouds Broken Clouds  
Wind Chill: 52°   Ceiling: 2800
Heat Index: 52°   Visibility: NA
Dew Point: 50°   Wind: 12mph
Humidity: 94%   Direction: 340°NNW
Pressure: 29.94"   Gusts: NA
Location:  42.92°S, 72.71°W
Report Text: SCPQ 220500Z AUTO 34010KT //// R35/P2000N BKN028 11/10 Q1014
Loading
Personal Weather Stations






























Interactive Weather Map
Tropical Storm Tracking
New forecast layout! Learn more

10-Day Weather Forecast

Advertisements
Track Severe Weather on mobile